Terminal Aerodrome Forecast
Issued by NWS Sterling, VA

Home | Current Version | Previous Version | Text Only | Print | Product List | Glossary On
Versions: 1 2 3 4 5 6 7 8 9 10 11 12 13 14 15 16 17 18 19 20 21 22 23 24 25 26 27
018
FTUS41 KLWX 240534
TAFBWI
TAF
KBWI 240534Z 2406/2512 06004KT P6SM -RA BKN015 OVC025
     FM240900 02005KT P6SM BKN015 OVC035
     FM241400 06006KT P6SM BKN015 BKN035
     FM241700 09007KT P6SM BKN025
     FM250100 11010G17KT P6SM BKN010 OVC025
     FM250300 10012G19KT P6SM -RA BKN010 OVC025
     FM250400 10012KT P6SM -RA BKN008 OVC025=

USA.gov is the U.S. government's official web portal to all federal, state and local government web resources and services.